Time;durP1;ratioP1;P1;durP2;ratioP2;P2;SDS_P1;SDS_P2;PMS_P1;PMS_P2;Temp;Humidity;BMP_temperature;BMP_pressure;BME280_temperature;BME280_humidity;BME280_pressure;Samples;Min_cycle;Max_cycle;Signal;HPM_P1;HPM_P2
2022/03/29 00:00:53;;;;;;;57.00;31.27;;;12.10;1.00;;;;;;5074232;28;20165;-67
2022/03/29 00:03:19;;;;;;;56.17;31.33;;;12.10;1.00;;;;;;5074006;28;20212;-67
2022/03/29 00:05:45;;;;;;;55.17;31.30;;;12.10;1.00;;;;;;5074399;28;20260;-67
2022/03/29 00:08:10;;;;;;;54.90;32.27;;;12.10;1.00;;;;;;5074425;28;20704;-68
2022/03/29 00:10:36;;;;;;;63.60;32.70;;;12.10;1.00;;;;;;5074205;28;20222;-67
2022/03/29 00:13:02;;;;;;;58.67;31.97;;;12.20;1.00;;;;;;5074081;28;20650;-67
2022/03/29 00:15:28;;;;;;;61.37;31.17;;;12.30;1.00;;;;;;5073974;28;20176;-67
2022/03/29 00:17:54;;;;;;;57.37;31.57;;;12.30;1.00;;;;;;5073856;28;20623;-66
2022/03/29 00:20:20;;;;;;;57.30;31.83;;;12.20;1.00;;;;;;5072811;28;20164;-68
2022/03/29 00:22:47;;;;;;;56.90;30.30;;;12.20;1.00;;;;;;5073961;28;20210;-67
2022/03/29 00:25:13;;;;;;;51.57;29.13;;;12.10;1.00;;;;;;5073968;28;20658;-66
2022/03/29 00:27:39;;;;;;;52.30;29.97;;;12.00;1.00;;;;;;5073847;28;20549;-67
2022/03/29 00:30:07;;;;;;;54.40;31.40;;;12.00;1.00;;;;;;5073612;28;20207;-67
2022/03/29 00:32:34;;;;;;;54.47;31.07;;;12.10;1.00;;;;;;5073260;28;20208;-66
2022/03/29 00:35:00;;;;;;;60.60;30.10;;;12.10;1.00;;;;;;5073805;28;20192;-66
2022/03/29 00:37:25;;;;;;;61.37;31.87;;;12.10;1.00;;;;;;5074029;28;20176;-66
2022/03/29 00:39:51;;;;;;;54.03;29.37;;;12.00;1.00;;;;;;5073749;28;20298;-66
2022/03/29 00:42:16;;;;;;;49.60;28.13;;;12.00;1.00;;;;;;5073327;28;20172;-66
2022/03/29 00:44:42;;;;;;;51.90;29.93;;;11.90;1.00;;;;;;5072258;28;20209;-65
2022/03/29 00:47:08;;;;;;;50.93;29.47;;;11.90;1.00;;;;;;5073383;28;20172;-67
2022/03/29 00:49:34;;;;;;;52.47;29.93;;;11.90;1.00;;;;;;5073549;28;20169;-66
2022/03/29 00:52:03;;;;;;;55.43;30.63;;;11.80;1.00;;;;;;5072137;28;20211;-67
2022/03/29 00:54:30;;;;;;;56.57;30.40;;;11.80;1.00;;;;;;5073187;28;20224;-67
2022/03/29 00:57:01;;;;;;;53.40;28.07;;;11.70;1.00;;;;;;5073249;28;20195;-66
2022/03/29 00:59:27;;;;;;;56.47;31.00;;;11.70;1.00;;;;;;5072952;28;20248;-67
2022/03/29 01:01:54;;;;;;;55.37;29.47;;;11.70;1.00;;;;;;5073607;28;20161;-66
2022/03/29 01:04:21;;;;;;;57.63;30.93;;;11.70;1.00;;;;;;5073275;28;20232;-67
2022/03/29 01:06:47;;;;;;;54.87;30.10;;;11.80;1.00;;;;;;5073536;28;20631;-66
2022/03/29 01:09:12;;;;;;;54.07;29.80;;;11.80;1.00;;;;;;5073333;28;20187;-66
2022/03/29 01:11:39;;;;;;;53.77;30.43;;;11.80;1.00;;;;;;5072903;28;20624;-66
2022/03/29 01:14:05;;;;;;;54.73;29.70;;;11.80;1.00;;;;;;5072529;28;20165;-67
2022/03/29 01:19:21;;;;;;;52.57;29.50;;;11.60;1.00;;;;;;5073493;28;20234;-67
2022/03/29 01:22:05;;;;;;;51.43;29.37;;;11.60;1.00;;;;;;5072824;28;20172;-67
2022/03/29 01:24:33;;;;;;;50.97;29.73;;;11.60;1.00;;;;;;5072878;28;20298;-66
2022/03/29 01:27:00;;;;;;;55.70;30.27;;;11.60;1.00;;;;;;5071718;28;20654;-66
2022/03/29 01:29:28;;;;;;;51.37;28.80;;;11.60;1.00;;;;;;5072694;28;20176;-67
2022/03/29 01:31:54;;;;;;;53.33;29.10;;;11.60;1.00;;;;;;5073102;28;20196;-66
2022/03/29 01:34:20;;;;;;;52.37;28.10;;;11.70;1.00;;;;;;5072880;28;20204;-67
2022/03/29 01:36:47;;;;;;;51.07;27.93;;;11.70;1.00;;;;;;5073031;28;20230;-66
2022/03/29 01:39:13;;;;;;;52.00;29.03;;;11.70;1.00;;;;;;5072854;28;20620;-66
2022/03/29 01:41:38;;;;;;;50.03;27.20;;;11.70;1.00;;;;;;5072669;28;20169;-66
2022/03/29 01:44:08;;;;;;;49.03;27.37;;;11.60;1.00;;;;;;5072528;28;20219;-66
2022/03/29 01:46:34;;;;;;;53.50;28.83;;;11.60;1.00;;;;;;5076850;28;20203;-66
2022/03/29 01:49:01;;;;;;;54.17;28.27;;;11.60;1.00;;;;;;5076982;28;20635;-66
2022/03/29 01:51:27;;;;;;;50.03;26.90;;;11.70;1.00;;;;;;5076761;28;20543;-66
2022/03/29 01:53:55;;;;;;;47.17;26.97;;;11.70;1.00;;;;;;5076952;28;20189;-66
2022/03/29 01:56:21;;;;;;;61.63;28.73;;;11.60;1.00;;;;;;5076474;28;20223;-66
2022/03/29 01:58:47;;;;;;;49.10;27.67;;;11.60;1.00;;;;;;5076522;28;20218;-66
2022/03/29 02:01:13;;;;;;;72.20;29.77;;;11.60;1.00;;;;;;5076606;28;20639;-66
2022/03/29 02:03:39;;;;;;;48.77;27.60;;;11.60;1.00;;;;;;5076678;28;20667;-66
2022/03/29 02:06:04;;;;;;;47.37;26.60;;;11.60;1.00;;;;;;5076740;28;20164;-66
2022/03/29 02:08:30;;;;;;;52.97;28.60;;;11.60;1.00;;;;;;5076706;28;20226;-66
2022/03/29 02:10:56;;;;;;;46.63;26.90;;;11.70;1.00;;;;;;5076643;28;20173;-67
2022/03/29 02:13:22;;;;;;;47.53;27.17;;;11.80;1.00;;;;;;5074989;28;20169;-66
2022/03/29 02:15:48;;;;;;;52.03;28.30;;;11.90;1.00;;;;;;5076371;28;20243;-66
2022/03/29 02:18:15;;;;;;;50.23;28.40;;;12.10;1.00;;;;;;5076562;28;20171;-66
2022/03/29 02:20:41;;;;;;;48.60;28.20;;;12.10;1.00;;;;;;5076421;28;20226;-65
2022/03/29 02:23:08;;;;;;;45.53;27.00;;;12.00;1.00;;;;;;5075104;28;20550;-66
2022/03/29 02:25:35;;;;;;;49.57;25.93;;;11.90;1.00;;;;;;5076285;28;20168;-67
2022/03/29 02:28:02;;;;;;;50.63;27.33;;;11.80;1.00;;;;;;5075955;28;20243;-66
2022/03/29 02:30:28;;;;;;;50.33;25.80;;;11.70;1.00;;;;;;5076051;28;20169;-66
2022/03/29 02:32:54;;;;;;;47.97;26.17;;;11.60;1.00;;;;;;5076282;28;20221;-67
2022/03/29 02:35:20;;;;;;;47.50;25.80;;;11.60;1.00;;;;;;5076241;28;20168;-66
2022/03/29 02:37:45;;;;;;;50.60;26.90;;;11.70;1.00;;;;;;5076213;28;20218;-65
2022/03/29 02:40:13;;;;;;;48.87;26.63;;;11.60;1.00;;;;;;5075950;28;20175;-66
2022/03/29 02:42:47;;;;;;;49.17;25.43;;;11.50;1.00;;;;;;5075510;28;20627;-66
2022/03/29 02:45:18;;;;;;;44.47;24.53;;;11.50;1.00;;;;;;5075867;28;20181;-67
2022/03/29 02:47:52;;;;;;;47.13;25.83;;;11.40;1.00;;;;;;5076088;28;20184;-66
2022/03/29 02:50:18;;;;;;;44.60;24.73;;;11.40;1.00;;;;;;5075807;28;20169;-66
2022/03/29 02:52:50;;;;;;;50.33;25.97;;;11.50;1.00;;;;;;5075405;28;20220;-66
2022/03/29 02:55:18;;;;;;;44.23;24.30;;;11.50;1.00;;;;;;5075185;28;20224;-66
2022/03/29 02:57:45;;;;;;;43.87;25.37;;;11.50;1.00;;;;;;5075806;28;20624;-67
2022/03/29 03:00:15;;;;;;;47.60;24.67;;;11.30;1.00;;;;;;5075664;28;20172;-67
2022/03/29 03:02:42;;;;;;;47.87;24.70;;;11.30;1.00;;;;;;5074329;28;20177;-66
2022/03/29 03:05:08;;;;;;;51.40;26.47;;;11.20;1.00;;;;;;5075625;28;20180;-67
2022/03/29 03:07:34;;;;;;;49.33;24.87;;;11.20;1.00;;;;;;5075586;28;20639;-66
2022/03/29 03:10:00;;;;;;;41.53;25.03;;;11.20;1.00;;;;;;5074831;28;20200;-66
2022/03/29 03:12:25;;;;;;;43.10;25.03;;;11.20;1.00;;;;;;5075573;28;20230;-65
2022/03/29 03:14:51;;;;;;;43.03;24.03;;;11.20;1.00;;;;;;5074094;28;20161;-66
2022/03/29 03:17:17;;;;;;;49.53;24.00;;;11.20;1.00;;;;;;5075375;28;20169;-66
2022/03/29 03:19:44;;;;;;;46.07;24.87;;;11.20;1.00;;;;;;5073743;28;20573;-66
2022/03/29 03:22:10;;;;;;;47.73;24.87;;;11.30;1.00;;;;;;5074728;28;20187;-66
2022/03/29 03:24:36;;;;;;;40.13;23.07;;;11.30;1.00;;;;;;5074319;28;20721;-66
2022/03/29 03:27:03;;;;;;;49.63;23.87;;;11.40;1.00;;;;;;5075456;28;20263;-66
2022/03/29 03:29:28;;;;;;;47.43;23.87;;;11.60;1.00;;;;;;5075204;28;20255;-65
2022/03/29 03:31:54;;;;;;;44.33;23.63;;;11.50;1.00;;;;;;5074665;28;20204;-66
2022/03/29 03:34:19;;;;;;;44.10;24.03;;;11.40;1.00;;;;;;5074886;28;20564;-66
2022/03/29 03:36:45;;;;;;;45.83;24.43;;;11.30;1.00;;;;;;5074879;28;20169;-66
2022/03/29 03:39:11;;;;;;;47.90;24.23;;;11.20;1.00;;;;;;5074287;28;20161;-66
2022/03/29 03:41:37;;;;;;;40.30;23.80;;;11.10;1.00;;;;;;5074385;28;20183;-67
2022/03/29 03:44:03;;;;;;;50.13;24.50;;;11.10;1.00;;;;;;5073426;28;20671;-67
2022/03/29 03:46:29;;;;;;;43.73;24.30;;;11.20;1.00;;;;;;5074307;28;20165;-66
2022/03/29 03:48:55;;;;;;;47.40;24.60;;;11.30;1.00;;;;;;5074955;28;20643;-67
2022/03/29 03:51:20;;;;;;;45.90;23.83;;;11.30;1.00;;;;;;5074054;28;20173;-67
2022/03/29 03:53:46;;;;;;;45.00;23.17;;;11.30;1.00;;;;;;5073521;28;20199;-67
2022/03/29 03:56:11;;;;;;;43.60;22.13;;;11.20;1.00;;;;;;5074256;28;20227;-66
2022/03/29 03:58:37;;;;;;;45.93;23.77;;;11.20;1.00;;;;;;5074217;28;20202;-66
2022/03/29 04:01:03;;;;;;;45.43;22.57;;;11.10;1.00;;;;;;5072856;28;20180;-66
2022/03/29 04:03:28;;;;;;;41.10;22.37;;;11.10;1.00;;;;;;5073960;28;20262;-66
2022/03/29 04:05:54;;;;;;;39.73;21.37;;;11.00;1.00;;;;;;5074337;28;20267;-67
2022/03/29 04:08:20;;;;;;;44.57;21.00;;;10.90;1.00;;;;;;5072697;28;20183;-67
2022/03/29 04:10:46;;;;;;;47.40;21.67;;;10.80;1.00;;;;;;5073801;28;20173;-67
2022/03/29 04:13:11;;;;;;;42.37;21.13;;;10.70;1.00;;;;;;5072455;28;20227;-67
2022/03/29 04:15:37;;;;;;;42.30;22.20;;;10.70;1.00;;;;;;5074049;28;20180;-67
2022/03/29 04:18:03;;;;;;;46.40;21.93;;;10.80;1.00;;;;;;5074238;28;20169;-67
2022/03/29 04:20:29;;;;;;;37.37;20.77;;;10.80;1.00;;;;;;5073917;28;20251;-67
2022/03/29 04:22:55;;;;;;;35.57;20.27;;;10.80;1.00;;;;;;5073271;28;20271;-67
2022/03/29 04:25:22;;;;;;;41.97;21.17;;;10.80;1.00;;;;;;5072335;28;20264;-66
2022/03/29 04:27:47;;;;;;;42.17;20.83;;;10.80;1.00;;;;;;5072444;28;20222;-66
2022/03/29 04:30:13;;;;;;;38.57;19.97;;;10.80;1.00;;;;;;5073417;28;20176;-67
2022/03/29 04:32:39;;;;;;;37.43;20.77;;;10.70;1.00;;;;;;5073444;28;20173;-66
2022/03/29 04:35:05;;;;;;;41.57;21.63;;;10.70;1.00;;;;;;5073378;28;20243;-66
2022/03/29 04:37:31;;;;;;;38.23;20.00;;;10.70;1.00;;;;;;5072745;28;20700;-65
2022/03/29 04:39:56;;;;;;;38.87;20.63;;;10.70;1.00;;;;;;5072015;28;20216;-67
2022/03/29 04:42:22;;;;;;;35.87;20.47;;;10.60;1.00;;;;;;5073078;28;20309;-67
2022/03/29 04:44:48;;;;;;;40.47;20.17;;;10.60;1.00;;;;;;5073501;28;20299;-67
2022/03/29 04:47:14;;;;;;;42.93;20.53;;;10.50;1.00;;;;;;5073213;28;20176;-67
2022/03/29 04:49:39;;;;;;;37.93;21.10;;;10.40;1.00;;;;;;5073206;28;20179;-67
2022/03/29 04:52:06;;;;;;;42.80;22.00;;;10.40;1.00;;;;;;5072247;28;20165;-66
2022/03/29 04:54:31;;;;;;;40.67;21.83;;;10.40;1.00;;;;;;5072481;28;20219;-66
2022/03/29 04:57:00;;;;;;;42.00;21.13;;;10.40;1.00;;;;;;5072817;28;20172;-66
2022/03/29 04:59:25;;;;;;;35.20;20.93;;;10.40;1.00;;;;;;5072802;28;20280;-67
2022/03/29 05:01:51;;;;;;;40.37;21.30;;;10.40;1.00;;;;;;5072841;28;20640;-65
2022/03/29 05:04:16;;;;;;;44.20;21.17;;;10.30;1.00;;;;;;5072777;28;20204;-67
2022/03/29 05:06:42;;;;;;;46.87;21.93;;;10.30;1.00;;;;;;5072381;28;20651;-67
2022/03/29 05:09:08;;;;;;;43.77;21.70;;;10.20;1.00;;;;;;5072439;28;20173;-67
2022/03/29 05:11:34;;;;;;;43.97;21.33;;;10.20;1.00;;;;;;5070686;28;20191;-66
2022/03/29 05:14:00;;;;;;;45.20;21.93;;;10.20;1.00;;;;;;5072545;28;20577;-67
2022/03/29 05:16:26;;;;;;;50.93;22.97;;;10.20;1.00;;;;;;5072665;28;20169;-68
2022/03/29 05:18:51;;;;;;;43.73;22.20;;;10.10;1.00;;;;;;5072217;28;20243;-67
2022/03/29 05:21:17;;;;;;;44.73;22.40;;;10.10;1.00;;;;;;5070951;28;20176;-67
2022/03/29 05:23:42;;;;;;;45.03;21.77;;;10.00;1.00;;;;;;5072333;28;20204;-66
2022/03/29 05:26:08;;;;;;;40.53;21.70;;;10.00;1.00;;;;;;5071680;28;20168;-67
2022/03/29 05:28:34;;;;;;;51.63;22.93;;;10.00;1.00;;;;;;5072399;28;20563;-67
2022/03/29 05:31:00;;;;;;;45.20;22.73;;;10.00;1.00;;;;;;5071909;28;20632;-67
2022/03/29 05:33:25;;;;;;;45.10;22.63;;;10.00;1.00;;;;;;5072271;28;20259;-67
2022/03/29 05:35:51;;;;;;;39.00;21.17;;;10.00;1.00;;;;;;5071212;28;20169;-66
2022/03/29 05:38:17;;;;;;;47.70;22.50;;;10.00;1.00;;;;;;5071956;28;20172;-66
2022/03/29 05:40:42;;;;;;;41.77;21.83;;;10.00;1.00;;;;;;5072129;28;20172;-67
2022/03/29 05:43:10;;;;;;;44.57;22.53;;;10.00;1.00;;;;;;5072000;28;20716;-67
2022/03/29 05:45:36;;;;;;;42.97;22.83;;;10.10;1.00;;;;;;5071367;28;20643;-66
2022/03/29 05:50:46;;;;;;;41.93;21.93;;;10.40;1.00;;;;;;5071447;28;20171;-66
2022/03/29 05:53:12;;;;;;;46.43;22.67;;;10.30;1.00;;;;;;5071941;28;20181;-67
2022/03/29 05:55:37;;;;;;;48.53;22.27;;;10.30;1.00;;;;;;5071649;28;20309;-67
2022/03/29 05:58:03;;;;;;;61.47;22.50;;;10.40;1.00;;;;;;5071234;28;20160;-68
2022/03/29 06:00:31;;;;;;;65.40;22.97;;;10.50;1.00;;;;;;5071624;28;20176;-68
2022/03/29 06:02:57;;;;;;;43.90;20.70;;;10.50;1.00;;;;;;5070921;28;20165;-66
2022/03/29 06:05:23;;;;;;;54.37;21.47;;;10.40;1.00;;;;;;5070420;28;20264;-66
2022/03/29 06:07:50;;;;;;;50.30;20.83;;;10.30;1.00;;;;;;5071383;28;20165;-66
2022/03/29 06:10:16;;;;;;;48.97;21.93;;;10.30;1.00;;;;;;5071885;28;20169;-65
2022/03/29 06:12:45;;;;;;;53.50;22.20;;;10.20;1.00;;;;;;5070971;28;20238;-67
2022/03/29 06:15:11;;;;;;;47.27;21.93;;;10.50;1.00;;;;;;5071293;28;20173;-67
2022/03/29 06:17:37;;;;;;;55.90;23.43;;;10.50;1.00;;;;;;5071423;28;20207;-68
2022/03/29 06:20:06;;;;;;;47.50;22.83;;;10.70;1.00;;;;;;5070939;28;20200;-66
2022/03/29 06:22:36;;;;;;;39.33;21.73;;;10.90;1.00;;;;;;5070908;28;20194;-67
2022/03/29 06:25:02;;;;;;;47.53;21.27;;;11.10;1.00;;;;;;5071319;28;20291;-67
2022/03/29 06:27:27;;;;;;;51.43;22.27;;;11.30;1.00;;;;;;5070615;28;20684;-67
2022/03/29 06:29:56;;;;;;;47.27;22.03;;;11.50;1.00;;;;;;5070774;28;20231;-67
2022/03/29 06:32:23;;;;;;;53.77;22.50;;;11.50;1.00;;;;;;5071986;28;20246;-67
2022/03/29 06:34:48;;;;;;;55.57;22.30;;;11.50;1.00;;;;;;5074092;28;20215;-67
2022/03/29 06:37:14;;;;;;;53.77;21.80;;;11.60;1.00;;;;;;5072714;28;20623;-67
2022/03/29 06:39:39;;;;;;;59.77;22.47;;;11.80;1.00;;;;;;5074368;28;20692;-68
2022/03/29 06:42:05;;;;;;;53.00;21.73;;;11.90;1.00;;;;;;5074462;28;20167;-69
2022/03/29 06:44:33;;;;;;;56.40;21.47;;;12.10;1.00;;;;;;5074687;28;20644;-67
2022/03/29 06:47:01;;;;;;;68.03;23.40;;;12.20;1.00;;;;;;5074692;28;20181;-67
2022/03/29 06:49:27;;;;;;;44.03;21.67;;;12.40;1.00;;;;;;5073767;28;20173;-66
2022/03/29 06:51:52;;;;;;;36.93;21.63;;;12.20;1.00;;;;;;5074383;28;20256;-67
2022/03/29 06:54:18;;;;;;;40.90;22.80;;;12.20;1.00;;;;;;5073732;28;20205;-68
2022/03/29 06:56:43;;;;;;;42.23;21.77;;;12.40;1.00;;;;;;5069556;28;20189;-66
2022/03/29 06:59:09;;;;;;;35.47;21.67;;;12.30;1.00;;;;;;5063456;28;20208;-68
2022/03/29 07:01:36;;;;;;;41.00;21.30;;;12.40;1.00;;;;;;5065231;28;20654;-68
2022/03/29 07:04:03;;;;;;;40.43;21.70;;;12.20;1.00;;;;;;5064860;28;20208;-68
2022/03/29 07:06:31;;;;;;;37.50;22.80;;;12.00;1.00;;;;;;5069648;28;20259;-67
2022/03/29 07:11:46;;;;;;;45.60;22.63;;;12.10;1.00;;;;;;5082847;28;20207;-69
2022/03/29 07:14:12;;;;;;;39.03;24.07;;;12.30;1.00;;;;;;5076674;28;20658;-67
2022/03/29 07:16:39;;;;;;;41.47;22.67;;;12.30;1.00;;;;;;5060595;28;20179;-68
2022/03/29 07:19:08;;;;;;;42.13;23.53;;;12.20;1.00;;;;;;5063844;28;20168;-67
2022/03/29 07:21:34;;;;;;;43.27;23.73;;;12.30;1.00;;;;;;5075319;28;20197;-67
2022/03/29 07:24:03;;;;;;;40.37;24.60;;;12.40;1.00;;;;;;5071882;28;20211;-67
2022/03/29 07:26:30;;;;;;;40.73;24.00;;;12.50;1.00;;;;;;5073478;28;20192;-68
2022/03/29 07:28:56;;;;;;;45.40;25.53;;;12.60;1.00;;;;;;5084942;28;20215;-68
2022/03/29 07:31:22;;;;;;;46.20;24.33;;;12.90;1.00;;;;;;5074380;28;20190;-67
2022/03/29 07:33:47;;;;;;;45.90;25.23;;;12.40;1.00;;;;;;5073979;28;20181;-68
2022/03/29 07:36:13;;;;;;;46.17;25.03;;;12.40;1.00;;;;;;5093736;28;20187;-67
2022/03/29 07:38:38;;;;;;;49.33;25.00;;;12.60;1.00;;;;;;5092956;28;20523;-69
2022/03/29 07:41:04;;;;;;;47.37;25.67;;;13.00;1.00;;;;;;5072493;28;20267;-67
2022/03/29 07:43:31;;;;;;;50.63;25.67;;;13.40;99.90;;;;;;5064023;28;20658;-67
2022/03/29 07:45:57;;;;;;;44.03;25.03;;;13.90;1.00;;;;;;5072561;28;20199;-67
2022/03/29 07:48:23;;;;;;;50.83;25.13;;;14.40;1.00;;;;;;5073523;28;20172;-68
2022/03/29 07:50:49;;;;;;;47.17;26.13;;;14.70;99.90;;;;;;5071962;28;20530;-68
2022/03/29 07:53:15;;;;;;;50.67;26.00;;;15.00;1.00;;;;;;5073140;28;20176;-68
2022/03/29 07:55:41;;;;;;;44.60;26.10;;;15.40;1.00;;;;;;5073722;28;20572;-68
2022/03/29 07:58:07;;;;;;;51.57;26.93;;;15.30;99.90;;;;;;5069217;28;20185;-69
2022/03/29 08:00:32;;;;;;;45.53;26.33;;;15.10;1.00;;;;;;5054000;28;20204;-67
2022/03/29 08:03:04;;;;;;;45.37;27.10;;;14.60;1.00;;;;;;5053094;28;20223;-68
2022/03/29 08:05:31;;;;;;;46.40;26.20;;;14.30;1.00;;;;;;5052002;28;20205;-69
2022/03/29 08:07:59;;;;;;;44.43;26.80;;;14.30;1.00;;;;;;5053577;28;20193;-69
2022/03/29 08:10:27;;;;;;;41.97;25.77;;;14.70;1.00;;;;;;5053734;28;20231;-69
2022/03/29 08:12:57;;;;;;;48.97;25.33;;;15.10;90.50;;;;;;5054936;28;20238;-68
2022/03/29 08:15:23;;;;;;;44.67;24.80;;;15.80;1.00;;;;;;5072905;28;20168;-69
2022/03/29 08:17:48;;;;;;;44.53;26.33;;;15.30;1.00;;;;;;5072943;28;20179;-69
2022/03/29 08:20:15;;;;;;;41.00;25.13;;;15.20;99.90;;;;;;5072891;28;20242;-68
2022/03/29 08:22:47;;;;;;;49.47;25.70;;;15.10;99.90;;;;;;5069837;28;20227;-68
2022/03/29 08:25:14;;;;;;;53.37;27.17;;;15.30;1.00;;;;;;5053751;28;20177;-69
2022/03/29 08:27:40;;;;;;;44.33;26.03;;;15.50;99.90;;;;;;5062977;28;20616;-69
2022/03/29 08:30:06;;;;;;;46.77;26.20;;;15.70;99.90;;;;;;5067939;28;20696;-69
2022/03/29 08:32:32;;;;;;;50.67;27.30;;;16.30;99.90;;;;;;5066789;28;20180;-69
2022/03/29 08:34:59;;;;;;;46.87;29.60;;;15.80;99.60;;;;;;5078194;28;20182;-69
2022/03/29 08:37:25;;;;;;;44.93;29.37;;;15.30;1.00;;;;;;5081378;28;20188;-69
2022/03/29 08:39:50;;;;;;;54.07;27.13;;;15.10;99.90;;;;;;5070320;28;20366;-69
2022/03/29 08:42:20;;;;;;;47.43;27.37;;;15.30;99.90;;;;;;5069189;28;20211;-69
2022/03/29 08:44:46;;;;;;;44.97;26.77;;;15.30;99.90;;;;;;5074301;28;20357;-68
2022/03/29 08:47:15;;;;;;;43.20;26.80;;;15.00;1.00;;;;;;5086829;28;20175;-68
2022/03/29 08:49:41;;;;;;;41.87;24.97;;;15.10;1.00;;;;;;5090813;28;20534;-69
2022/03/29 08:52:11;;;;;;;43.03;24.80;;;15.40;1.00;;;;;;5074291;28;20233;-68
2022/03/29 08:54:37;;;;;;;49.37;25.47;;;15.80;1.00;;;;;;5059361;28;20236;-69
2022/03/29 08:57:03;;;;;;;43.27;24.80;;;15.80;99.90;;;;;;5070875;28;20648;-68
2022/03/29 08:59:29;;;;;;;48.27;25.00;;;15.60;1.00;;;;;;5069779;28;20177;-69
2022/03/29 09:02:07;;;;;;;41.43;24.57;;;15.90;99.90;;;;;;5059937;28;20625;-70
2022/03/29 09:04:33;;;;;;;50.07;24.87;;;15.70;99.90;;;;;;5052197;28;20242;-69
2022/03/29 09:07:01;;;;;;;42.40;25.73;;;15.30;1.00;;;;;;5051633;28;20166;-68
2022/03/29 09:09:28;;;;;;;44.53;25.77;;;15.50;1.00;;;;;;5050452;28;20180;-68
2022/03/29 09:11:56;;;;;;;46.53;26.77;;;15.50;27.80;;;;;;5054205;28;20177;-67
2022/03/29 09:14:23;;;;;;;43.90;25.23;;;15.80;99.90;;;;;;5051660;28;20286;-69
2022/03/29 09:16:50;;;;;;;43.13;26.27;;;16.20;99.10;;;;;;5051789;28;20176;-68
2022/03/29 09:19:16;;;;;;;41.17;26.60;;;16.20;99.10;;;;;;5052451;28;20169;-68
2022/03/29 09:21:43;;;;;;;42.23;25.80;;;16.30;99.30;;;;;;5056650;28;20539;-68
2022/03/29 09:24:11;;;;;;;47.77;26.77;;;16.60;98.60;;;;;;5071569;28;20208;-69
2022/03/29 09:26:40;;;;;;;44.43;27.20;;;16.40;98.80;;;;;;5071734;28;20252;-68
2022/03/29 09:29:26;;;;;;;42.33;26.53;;;17.00;98.40;;;;;;5069534;28;20178;-69
2022/03/29 09:32:07;;;;;;;41.27;26.03;;;17.20;96.60;;;;;;5063889;28;20176;-69
2022/03/29 09:34:33;;;;;;;44.07;25.63;;;16.50;97.80;;;;;;5069803;28;20168;-68
2022/03/29 09:37:02;;;;;;;43.30;25.87;;;16.50;98.50;;;;;;5072347;28;20168;-68
2022/03/29 09:39:30;;;;;;;45.03;27.23;;;16.40;98.90;;;;;;5063625;28;20176;-68
2022/03/29 09:42:02;;;;;;;44.03;26.87;;;16.30;99.00;;;;;;5051549;28;20176;-67
2022/03/29 09:44:41;;;;;;;39.60;26.77;;;16.00;99.80;;;;;;5051853;28;20201;-68
2022/03/29 09:47:09;;;;;;;41.13;27.30;;;15.80;99.90;;;;;;5051918;28;20165;-69
2022/03/29 09:50:08;;;;;;;41.03;26.97;;;16.10;99.90;;;;;;5058603;28;20233;-70
2022/03/29 09:52:39;;;;;;;50.57;27.37;;;16.00;99.70;;;;;;5071142;28;20199;-70
2022/03/29 09:55:16;;;;;;;40.40;25.67;;;16.10;99.50;;;;;;5071440;28;20269;-70
2022/03/29 09:57:57;;;;;;;43.67;26.70;;;16.20;99.00;;;;;;5071196;28;20525;-70
2022/03/29 10:00:29;;;;;;;41.67;27.03;;;16.30;98.90;;;;;;5071243;28;20256;-71
2022/03/29 10:02:55;;;;;;;44.53;26.90;;;16.20;99.20;;;;;;5070432;28;20687;-69
2022/03/29 10:05:23;;;;;;;41.87;27.73;;;16.30;98.90;;;;;;5071653;28;20264;-69
2022/03/29 10:10:55;;;;;;;44.93;26.83;;;16.20;99.20;;;;;;5074516;28;20195;-68
2022/03/29 10:13:23;;;;;;;42.77;26.10;;;16.00;99.50;;;;;;5075759;28;20616;-68
2022/03/29 10:15:50;;;;;;;47.57;26.60;;;16.30;99.00;;;;;;5075940;28;20247;-70
2022/03/29 10:18:16;;;;;;;42.03;25.80;;;16.50;98.30;;;;;;5075051;28;20184;-69
2022/03/29 10:20:44;;;;;;;37.67;26.30;;;16.60;98.20;;;;;;5075378;28;20164;-69
2022/03/29 10:23:21;;;;;;;40.30;25.97;;;16.40;98.20;;;;;;5075223;28;20164;-68
2022/03/29 10:25:48;;;;;;;37.53;25.60;;;16.10;98.70;;;;;;5074621;28;20164;-69
2022/03/29 10:28:14;;;;;;;48.90;26.27;;;16.20;98.50;;;;;;5074868;28;20297;-68
2022/03/29 10:30:41;;;;;;;37.30;25.40;;;16.10;99.30;;;;;;5075232;28;20643;-69
2022/03/29 10:33:16;;;;;;;36.97;25.23;;;16.40;98.20;;;;;;5075522;28;20192;-69
2022/03/29 10:36:01;;;;;;;41.00;26.83;;;16.40;98.40;;;;;;5074938;28;20164;-70
2022/03/29 10:38:53;;;;;;;40.23;25.80;;;16.60;97.70;;;;;;5074459;28;20164;-68
2022/03/29 10:41:28;;;;;;;40.37;25.00;;;16.90;97.20;;;;;;5070412;28;20187;-71
2022/03/29 10:44:15;;;;;;;39.77;24.93;;;17.20;95.90;;;;;;5075199;28;20204;-68
2022/03/29 10:46:43;;;;;;;39.40;25.77;;;17.20;95.20;;;;;;5075625;28;20157;-69
2022/03/29 10:49:20;;;;;;;37.23;26.33;;;17.30;95.20;;;;;;5071087;28;20574;-69
2022/03/29 10:51:50;;;;;;;41.20;24.80;;;17.30;95.10;;;;;;5061263;28;20205;-69
2022/03/29 10:54:41;;;;;;;35.90;24.97;;;16.70;95.60;;;;;;5053946;28;20189;-70
2022/03/29 10:57:28;;;;;;;43.67;26.43;;;16.40;97.10;;;;;;5054436;28;20165;-69
2022/03/29 11:00:17;;;;;;;39.10;25.33;;;16.50;96.60;;;;;;5054210;28;20527;-69
2022/03/29 11:03:08;;;;;;;38.60;25.00;;;16.30;96.20;;;;;;5048676;28;20192;-69
2022/03/29 11:06:03;;;;;;;42.60;26.03;;;16.40;96.20;;;;;;5054451;28;20175;-67
2022/03/29 11:08:29;;;;;;;33.50;23.20;;;16.60;96.40;;;;;;5053586;28;20241;-69
2022/03/29 11:10:57;;;;;;;31.00;22.90;;;16.90;95.30;;;;;;5071413;28;20256;-69
2022/03/29 11:13:42;;;;;;;37.13;24.80;;;17.00;94.40;;;;;;5072907;28;20176;-69
2022/03/29 11:16:27;;;;;;;35.17;23.77;;;16.90;94.80;;;;;;5072741;28;20206;-69
2022/03/29 11:18:53;;;;;;;35.27;21.37;;;17.00;94.40;;;;;;5074263;28;20171;-68
2022/03/29 11:21:34;;;;;;;34.50;21.50;;;16.80;93.60;;;;;;5074455;28;20257;-67
2022/03/29 11:24:01;;;;;;;37.93;22.53;;;16.60;94.50;;;;;;5073717;28;20638;-69
2022/03/29 11:26:28;;;;;;;31.20;22.07;;;16.80;94.70;;;;;;5073849;28;20168;-70
2022/03/29 11:28:59;;;;;;;34.83;22.77;;;17.00;94.60;;;;;;5074513;28;20697;-69
2022/03/29 11:31:37;;;;;;;35.63;22.03;;;17.20;93.70;;;;;;5074266;28;20222;-69
2022/03/29 11:34:03;;;;;;;37.23;21.40;;;17.80;93.00;;;;;;5073887;28;20167;-69
2022/03/29 11:36:30;;;;;;;32.83;20.60;;;18.10;91.30;;;;;;5072882;28;20540;-69
2022/03/29 11:38:56;;;;;;;34.30;21.40;;;17.90;90.60;;;;;;5073280;28;20511;-69
2022/03/29 11:41:30;;;;;;;30.97;19.37;;;17.60;91.40;;;;;;5073143;28;20173;-69
2022/03/29 11:44:05;;;;;;;32.10;19.93;;;17.50;90.30;;;;;;5074152;28;20200;-68
2022/03/29 11:46:49;;;;;;;33.95;20.45;;;17.70;90.50;;;;;;5072459;28;20153;-69
2022/03/29 11:49:16;;;;;;;32.47;19.35;;;18.10;90.30;;;;;;5061880;28;20609;-70
2022/03/29 11:51:42;;;;;;;29.88;19.45;;;18.90;87.20;;;;;;5080154;28;20180;-69
2022/03/29 11:54:08;;;;;;;27.23;18.55;;;19.10;83.90;;;;;;5072757;28;20193;-70
2022/03/29 11:56:38;;;;;;;26.95;18.45;;;19.00;80.80;;;;;;5056268;28;20698;-69
2022/03/29 11:59:06;;;;;;;30.80;19.35;;;19.60;78.10;;;;;;5065050;28;20696;-68
2022/03/29 12:01:34;;;;;;;26.23;16.90;;;19.20;79.10;;;;;;5079506;28;20204;-69
2022/03/29 12:04:03;;;;;;;31.08;19.13;;;18.80;76.80;;;;;;5071929;28;20216;-70
2022/03/29 12:06:31;;;;;;;25.60;16.35;;;18.60;78.80;;;;;;5055548;28;20260;-69
2022/03/29 12:09:03;;;;;;;23.48;15.50;;;18.60;77.50;;;;;;5053386;28;20169;-70
2022/03/29 12:11:37;;;;;;;23.15;15.55;;;18.70;73.50;;;;;;5057407;28;20184;-70
2022/03/29 12:14:17;;;;;;;23.40;15.63;;;18.60;73.40;;;;;;5061839;28;20297;-70
2022/03/29 12:16:51;;;;;;;20.42;14.63;;;18.50;74.80;;;;;;5072164;28;20173;-70
2022/03/29 12:19:25;;;;;;;20.77;13.88;;;19.20;71.40;;;;;;5072269;28;20277;-69
2022/03/29 12:22:03;;;;;;;26.13;14.55;;;18.90;69.20;;;;;;5071357;28;20482;-70
2022/03/29 12:24:42;;;;;;;22.42;13.25;;;18.50;69.50;;;;;;5072784;28;20361;-70
2022/03/29 12:27:14;;;;;;;20.67;15.25;;;18.30;69.80;;;;;;5071819;28;20261;-71
2022/03/29 12:29:52;;;;;;;16.75;10.40;;;18.00;72.50;;;;;;5072485;28;20186;-70
2022/03/29 12:32:18;;;;;;;20.88;12.88;;;18.00;66.30;;;;;;5067082;28;20177;-68
2022/03/29 12:34:45;;;;;;;19.15;12.68;;;18.40;67.70;;;;;;5055765;28;20601;-69
2022/03/29 12:37:14;;;;;;;19.50;12.15;;;18.60;66.10;;;;;;5066661;28;20651;-70
2022/03/29 12:39:42;;;;;;;24.33;13.90;;;18.80;65.20;;;;;;5070315;28;20701;-69
2022/03/29 12:42:16;;;;;;;26.42;16.27;;;18.50;66.50;;;;;;5072291;28;20222;-71
2022/03/29 12:44:53;;;;;;;24.58;16.58;;;18.50;67.30;;;;;;5065331;28;20216;-70
2022/03/29 12:47:18;;;;;;;26.70;16.05;;;18.60;68.20;;;;;;5061173;28;20179;-72
2022/03/29 12:49:49;;;;;;;27.13;15.70;;;18.40;69.40;;;;;;5063200;28;20185;-70